createdAt,value
2019-04-22T00:00:12.676Z,95361.03
2019-04-22T00:02:43.513Z,95359.37
2019-04-22T00:05:15.139Z,95360.78
2019-04-22T00:08:00.119Z,95357.84
2019-04-22T00:10:28.960Z,95356.84
2019-04-22T00:15:10.123Z,95359.16
2019-04-22T00:17:48.230Z,95359.74
2019-04-22T00:20:08.668Z,95355.68
2019-04-22T00:22:32.477Z,95352.99
2019-04-22T00:25:03.437Z,95355.31
2019-04-22T00:27:35.725Z,95352.66
2019-04-22T00:30:15.476Z,95350.91
2019-04-22T00:32:18.186Z,95353.56
2019-04-22T00:34:42.616Z,95353.81
2019-04-22T00:37:11.364Z,95354.65
2019-04-22T00:39:42.619Z,95354.28
2019-04-22T00:42:03.333Z,95354.56
2019-04-22T00:44:33.246Z,95348.80
2019-04-22T00:46:59.580Z,95345.91
2019-04-22T00:54:13.712Z,95344.62
2019-04-22T00:56:40.843Z,95339.94
2019-04-22T00:59:11.481Z,95337.69
2019-04-22T01:01:41.055Z,95338.10
2019-04-22T01:04:14.570Z,95339.48
2019-04-22T01:06:25.720Z,95333.05
2019-04-22T01:08:57.814Z,95329.66
2019-04-22T01:11:24.756Z,95333.71
2019-04-22T01:13:45.583Z,95335.74
2019-04-22T01:16:17.102Z,95328.28
2019-04-22T01:18:38.016Z,95329.41
2019-04-22T01:23:29.852Z,95333.33
2019-04-22T01:25:55.071Z,95331.22
2019-04-22T01:28:15.161Z,95334.25
2019-04-22T01:30:38.374Z,95330.02
2019-04-22T01:33:03.587Z,95333.58
2019-04-22T01:35:34.850Z,95333.22
2019-04-22T01:38:04.162Z,95330.77
2019-04-22T01:40:39.079Z,95334.41
2019-04-22T01:43:14.733Z,95334.75
2019-04-22T01:45:25.909Z,95333.22
2019-04-22T01:48:00.536Z,95334.66
2019-04-22T01:50:26.169Z,95332.76
2019-04-22T01:52:56.765Z,95340.27
2019-04-22T01:55:27.317Z,95337.11
2019-04-22T01:57:41.409Z,95332.46
2019-04-22T02:00:00.792Z,95331.89
2019-04-22T02:02:38.456Z,95333.26
2019-04-22T02:05:07.338Z,95331.98
2019-04-22T02:07:29.449Z,95330.14
2019-04-22T02:09:56.112Z,95323.55
2019-04-22T02:12:21.347Z,95318.20
2019-04-22T02:14:44.011Z,95320.48
2019-04-22T02:17:17.649Z,95324.27
2019-04-22T02:22:11.530Z,95328.98
2019-04-22T02:24:39.953Z,95323.84
2019-04-22T02:26:58.200Z,95323.39
2019-04-22T02:29:30.048Z,95328.28
2019-04-22T02:32:04.861Z,95321.97
2019-04-22T02:34:24.075Z,95318.64
2019-04-22T02:39:11.826Z,95311.94
2019-04-22T02:41:54.721Z,95317.27
2019-04-22T02:44:13.893Z,95316.25
2019-04-22T02:49:18.774Z,95317.42
2019-04-22T02:54:23.211Z,95317.73
2019-04-22T02:56:27.511Z,95309.00
2019-04-22T03:01:22.966Z,95308.27
2019-04-22T03:03:50.559Z,95306.05
2019-04-22T03:06:48.888Z,95310.35
2019-04-22T03:08:51.133Z,95311.11
2019-04-22T03:11:07.584Z,95313.87
2019-04-22T03:13:38.280Z,95311.77
2019-04-22T03:15:59.550Z,95315.62
2019-04-22T03:18:20.044Z,95312.26
2019-04-22T03:20:50.082Z,95309.84
2019-04-22T03:28:23.636Z,95308.91
2019-04-22T03:33:14.544Z,95311.15
2019-04-22T03:37:55.932Z,95311.34
2019-04-22T03:40:30.407Z,95318.05
2019-04-22T03:42:52.390Z,95314.89
2019-04-22T03:45:20.172Z,95315.88
2019-04-22T03:47:38.729Z,95316.33
2019-04-22T03:50:04.013Z,95315.53
2019-04-22T04:09:32.725Z,95323.20
2019-04-22T04:12:03.530Z,95332.56
2019-04-22T04:14:33.126Z,95329.09
2019-04-22T04:16:56.340Z,95335.45
2019-04-22T04:19:30.816Z,95330.44
2019-04-22T04:21:42.116Z,95336.34
2019-04-22T04:29:17.192Z,95332.20
2019-04-22T04:31:32.782Z,95343.42
2019-04-22T04:33:54.064Z,95341.31
